Mc Connell Air Force Base
KIAB : rendu visible

Aérodrome :











RETROUVEZ-NOUS SUR...

 
LOGIN :

S'inscrire | Disclaimer

   EN    FR    IT 

 









Légende :    VFR   VFR Marginal   IFR   IFR Intensif   IFR Très Intensif
Visi : 
Plafond : 
>= 8 km
>= 3000ft
5 à 8 km
1000 à 3000 ft
1500m à 5 km
500 à 1000 ft
800 à 1500m
200 à 500 ft
< 800m
< 200 ft
Symboles :   Orages  Brouillard  Fortes neiges  Fortes précipitations  Vent > 20 kt






- Altitude de l'aérodrome : 1371 ft
- Code IATA : IAB


KIAB - Mc Connell Air Force Base

DERNIER METAR :
  • 101156Z AUTO 14010KT 10SM FEW160 25/18 A2990 RMK AO2 PRESFR SLP111 60000 T02510183 10279 20248 58019 TSNO $

METARs EXPIRÉS :
  • 101056Z AUTO 00000KT 10SM SCT090 BKN110 BKN130 25/19 A2996 RMK AO2 DZB06E16 SLP131 P0000 T02480187 TSNO $
  • 101016Z AUTO 29006G18KT 10SM BKN120 BKN140 BKN200 26/19 A2998 RMK AO2 DZB06E16 SLP137 TSNO $
  • 100956Z AUTO 29009KT 10SM SCT100 BKN130 26/19 A2999 RMK AO2 DZB40E50 SLP141 P0000 T02620188 TSNO $
  • 100950Z AUTO 29008KT 10SM BKN100 BKN130 27/19 A2999 RMK AO2 DZB40E50 SLP140 TSNO $
  • 100940Z AUTO 30011G20KT 10SM -DZ FEW047 BKN100 BKN130 27/19 A2999 RMK AO2 DZB40 SLP140 TSNO $

TAF TAF KIAB
Valide du 10 à 10h jusqu'au 11 à 16h UTC


101000Z 1010/1116 27010G15KT 8000 -SHRA VCTS SCT020CB BKN100 OVC200 QNH2995INS
TEMPO 1010/1013 25028G38KT 3200 TSRA OVC020CB
BECMG 1012/1013 18010G15KT 9999 NSW FEW020 SCT100 QNH2993INS
BECMG 1019/1020 19015G25KT 9000 -SHRA VCTS SCT020CB BKN100 QNH2992INS
TEMPO 1020/1023 22020G30KT 4800 -TSRA BKN020CB
BECMG 1022/1023 18009KT 9999 NSW FEW100 FEW160 WS020/22040KT QNH2994INS TX37/1020Z TN25/1013Z
FIR KZKC / Amérique du Nord



MET'MAP, la Météo Aéronautique d'un coup d'oeil ! - Copyright ORBIFLY Décembre 2007 - Disclaimer

ORBIFLY MET'MAP TEAM :

Programmation & Développement : Alexandra Zaïnal
Sur une idée originale de : Baudouin d'Aumeries
Assistance à la programmation : Marc-Olivier Méhu
Soutien technique & logistique : Manuel Goepfert

Contact : metmap@orbifly.com




SOURCES & CREDITS :

   NOAA       Earth
Advisory